Time;durP1;ratioP1;P1;durP2;ratioP2;P2;SDS_P1;SDS_P2;PMS_P1;PMS_P2;Temp;Humidity;BMP_temperature;BMP_pressure;BME280_temperature;BME280_humidity;BME280_pressure;Samples;Min_cycle;Max_cycle;Signal;HPM_P1;HPM_P2
2021/05/06 00:02:00;;;;;;;5.75;1.50;;;;;;;5.58;74.04;98415.63;5055274;28;20025;-72
2021/05/06 00:34:15;;;;;;;1.45;1.00;;;;;;;5.45;74.80;98384.06;5071642;28;20040;-70
2021/05/06 00:36:40;;;;;;;3.15;1.00;;;;;;;5.48;74.78;98400.63;5037068;28;20033;-70
2021/05/06 00:39:10;;;;;;;4.97;1.10;;;;;;;5.51;74.09;98412.03;5067841;28;20029;-70
2021/05/06 00:54:43;;;;;;;2.55;0.90;;;;;;;5.57;74.45;98385.28;5062246;28;20067;-70
2021/05/06 00:57:36;;;;;;;2.20;0.90;;;;;;;5.52;74.86;98381.47;5035323;28;20477;-70
2021/05/06 01:05:27;;;;;;;1.67;0.93;;;;;;;5.52;75.10;98371.59;5072307;28;20075;-71
2021/05/06 01:12:53;;;;;;;3.20;1.00;;;;;;;5.48;74.03;98360.38;5067777;28;20097;-70
2021/05/06 01:15:18;;;;;;;2.90;0.90;;;;;;;5.49;74.10;98380.81;5060082;28;20036;-70
2021/05/06 01:17:43;;;;;;;2.53;1.40;;;;;;;5.53;73.91;98375.94;5037301;28;20021;-70
2021/05/06 01:20:10;;;;;;;2.72;1.27;;;;;;;5.52;74.51;98379.63;5048926;28;20051;-70
2021/05/06 01:22:35;;;;;;;2.03;0.73;;;;;;;5.38;74.62;98359.81;5071974;28;20119;-71
2021/05/06 01:25:02;;;;;;;1.77;0.90;;;;;;;5.46;75.07;98370.47;5050590;28;20502;-70
2021/05/06 01:32:55;;;;;;;6.90;1.20;;;;;;;5.47;75.40;98364.06;5062192;28;20087;-70
2021/05/06 01:35:42;;;;;;;2.58;1.00;;;;;;;5.41;75.21;98354.06;5052522;28;20028;-70
2021/05/06 01:59:03;;;;;;;2.47;1.00;;;;;;;5.62;73.54;98336.44;5052184;28;20143;-72
2021/05/06 02:01:28;;;;;;;1.27;0.90;;;;;;;5.65;73.71;98336.06;5052995;28;20035;-73
2021/05/06 02:03:53;;;;;;;1.17;0.90;;;;;;;5.62;73.25;98331.06;5059936;28;20021;-71
2021/05/06 02:06:20;;;;;;;1.13;0.75;;;;;;;5.57;73.70;98328.09;5071527;28;20024;-72
2021/05/06 02:08:45;;;;;;;2.05;0.98;;;;;;;5.57;74.02;98334.31;5071687;28;20501;-72
2021/05/06 02:11:11;;;;;;;2.28;0.77;;;;;;;5.65;73.57;98333.38;5071463;28;20029;-72
2021/05/06 02:13:36;;;;;;;1.98;0.98;;;;;;;5.64;73.65;98339.78;5057864;28;20089;-71
2021/05/06 02:16:04;;;;;;;2.35;1.00;;;;;;;5.61;73.31;98332.09;5070253;28;20024;-72
2021/05/06 02:18:32;;;;;;;2.97;1.10;;;;;;;5.65;73.57;98336.91;5070116;28;20031;-72
2021/05/06 02:20:58;;;;;;;2.00;1.00;;;;;;;5.55;73.95;98319.41;5046938;28;20025;-72
2021/05/06 02:23:23;;;;;;;2.33;1.02;;;;;;;5.53;73.61;98314.22;5071188;28;20024;-72
2021/05/06 02:25:49;;;;;;;4.40;1.25;;;;;;;5.53;73.68;98318.75;5068212;28;20111;-72
2021/05/06 02:28:15;;;;;;;2.28;0.88;;;;;;;5.55;74.00;98330.13;5050372;28;20029;-72
2021/05/06 02:30:41;;;;;;;2.30;1.02;;;;;;;5.58;73.88;98327.06;5057304;28;20475;-72
2021/05/06 02:33:08;;;;;;;1.77;0.77;;;;;;;5.49;74.24;98311.06;5046793;28;20070;-72
2021/05/06 02:35:35;;;;;;;1.92;0.88;;;;;;;5.57;74.21;98331.63;5045331;28;20031;-72
2021/05/06 02:38:02;;;;;;;2.42;0.90;;;;;;;5.41;75.09;98319.19;5069715;28;20025;-72
2021/05/06 02:40:27;;;;;;;2.47;0.80;;;;;;;5.18;74.97;98281.69;5066644;28;20044;-72
2021/05/06 02:42:52;;;;;;;2.70;1.02;;;;;;;5.32;75.23;98309.56;5062864;28;20494;-70
2021/05/06 02:45:18;;;;;;;1.58;0.98;;;;;;;5.34;74.93;98310.19;5074890;28;20043;-70
2021/05/06 02:47:43;;;;;;;2.95;1.00;;;;;;;5.31;74.93;98304.38;5074451;28;20099;-69
2021/05/06 02:50:14;;;;;;;2.15;0.85;;;;;;;5.27;74.59;98303.91;5073739;28;20029;-70
2021/05/06 02:52:54;;;;;;;1.70;0.98;;;;;;;5.39;74.35;98312.34;5075005;28;20566;-72
2021/05/06 02:55:26;;;;;;;1.50;0.90;;;;;;;5.45;73.89;98309.78;5062842;28;20029;-71
2021/05/06 02:57:56;;;;;;;2.97;0.90;;;;;;;5.42;73.42;98294.06;5074323;28;20028;-72
2021/05/06 03:03:06;;;;;;;5.90;1.10;;;;;;;5.59;73.35;98299.25;5072152;28;20393;-72
2021/05/06 03:05:34;;;;;;;4.13;1.27;;;;;;;5.63;72.78;98297.84;5073903;28;20024;-72
2021/05/06 03:24:12;;;;;;;2.20;1.05;;;;;;;5.78;71.42;98262.97;5048297;28;20227;-71
2021/05/06 03:26:38;;;;;;;4.78;1.15;;;;;;;5.88;70.16;98258.97;5069189;28;20020;-70
2021/05/06 03:29:09;;;;;;;1.70;0.98;;;;;;;5.84;70.24;98262.22;5049017;28;20036;-71
2021/05/06 03:31:54;;;;;;;2.80;1.20;;;;;;;5.83;69.28;98250.66;5056198;28;20405;-71
2021/05/06 03:42:42;;;;;;;2.38;1.10;;;;;;;6.03;69.69;98266.22;5057357;28;20402;-67
2021/05/06 04:15:36;;;;;;;6.20;1.13;;;;;;;6.04;70.29;98281.31;5072947;28;20047;-67
2021/05/06 04:18:52;;;;;;;3.55;1.23;;;;;;;6.04;70.40;98284.81;5055061;28;20024;-68
2021/05/06 04:26:33;;;;;;;5.13;1.20;;;;;;;5.90;72.48;98283.78;5060538;28;20509;-75
2021/05/06 04:35:37;;;;;;;5.15;1.15;;;;;;;6.05;72.30;98286.50;5044429;28;20044;-72
2021/05/06 04:37:51;;;;;;;3.50;1.25;;;;;;;5.99;71.96;98275.66;5052731;28;20070;-73
2021/05/06 04:43:34;;;;;;;3.45;1.25;;;;;;;6.00;72.43;98266.56;5067201;28;20055;-69
2021/05/06 04:46:26;;;;;;;6.93;1.30;;;;;;;5.99;72.02;98271.13;5064443;28;20119;-73
2021/05/06 04:57:37;;;;;;;4.10;1.13;;;;;;;6.07;71.98;98262.94;5056559;28;20024;-75
2021/05/06 05:04:55;;;;;;;3.95;1.15;;;;;;;6.55;71.00;98265.19;5068584;28;20078;-74
2021/05/06 05:07:36;;;;;;;2.67;1.25;;;;;;;6.58;71.42;98280.91;5054594;28;20024;-69
2021/05/06 05:10:52;;;;;;;4.60;1.33;;;;;;;6.76;71.06;98273.25;5050760;28;20111;-70
2021/05/06 05:21:19;;;;;;;4.82;1.15;;;;;;;6.67;70.64;98263.63;5067466;28;20038;-70
2021/05/06 05:23:51;;;;;;;4.97;1.10;;;;;;;6.79;70.17;98256.72;5060430;28;20024;-69
2021/05/06 05:26:16;;;;;;;3.28;1.20;;;;;;;6.95;69.51;98246.72;5071291;28;20107;-76
2021/05/06 05:28:41;;;;;;;2.90;1.00;;;;;;;7.57;68.66;98242.41;5072357;28;20545;-75
2021/05/06 05:31:07;;;;;;;7.72;1.50;;;;;;;7.97;66.39;98243.47;5051742;28;20418;-76
2021/05/06 05:33:39;;;;;;;3.60;1.13;;;;;;;8.21;64.98;98227.78;5067590;28;20033;-71
2021/05/06 05:36:13;;;;;;;2.92;1.10;;;;;;;8.42;65.27;98241.16;5061093;28;20031;-71
2021/05/06 05:41:57;;;;;;;1.65;1.17;;;;;;;8.37;64.89;98230.13;5074966;28;20036;-75
2021/05/06 05:56:51;;;;;;;4.10;1.40;;;;;;;7.47;67.51;98232.84;5064661;28;20033;-72
2021/05/06 05:59:16;;;;;;;1.20;1.00;;;;;;;7.53;67.73;98236.59;5071391;28;20028;-70
2021/05/06 06:01:42;;;;;;;2.17;0.90;;;;;;;7.47;67.91;98221.25;5071321;28;20031;-70
2021/05/06 06:04:07;;;;;;;5.35;1.40;;;;;;;7.33;68.34;98231.06;5069158;28;20021;-65
2021/05/06 06:06:32;;;;;;;5.93;1.20;;;;;;;7.34;68.75;98245.38;5052587;28;20029;-71
2021/05/06 06:08:58;;;;;;;4.85;1.10;;;;;;;7.24;69.20;98235.78;5051630;28;20025;-74
2021/05/06 06:11:23;;;;;;;3.55;1.20;;;;;;;7.27;69.66;98231.84;5068414;28;20133;-72
2021/05/06 06:13:51;;;;;;;6.53;1.48;;;;;;;7.27;69.73;98228.34;5069250;28;20071;-70
2021/05/06 06:16:22;;;;;;;4.70;1.40;;;;;;;7.23;69.91;98236.81;5062777;28;20034;-73
2021/05/06 06:18:55;;;;;;;2.80;1.30;;;;;;;7.05;69.83;98223.03;5074274;28;20021;-75
2021/05/06 06:21:31;;;;;;;4.88;2.08;;;;;;;7.27;69.67;98231.03;5050350;28;20040;-74
2021/05/06 06:23:56;;;;;;;9.30;1.80;;;;;;;7.13;70.27;98233.63;5068591;28;20021;-73
2021/05/06 06:26:22;;;;;;;2.42;1.90;;;;;;;7.11;70.60;98243.75;5064339;28;20031;-71
2021/05/06 06:28:50;;;;;;;4.50;1.92;;;;;;;6.99;70.77;98234.53;5059379;28;20031;-73
2021/05/06 06:33:47;;;;;;;6.22;1.73;;;;;;;6.89;72.59;98234.03;5066431;28;20132;-76
2021/05/06 06:36:13;;;;;;;4.15;2.35;;;;;;;6.66;72.22;98224.34;5066770;28;20064;-74
2021/05/06 06:38:38;;;;;;;4.78;2.17;;;;;;;6.76;72.95;98207.88;5073940;28;20405;-76
2021/05/06 06:41:08;;;;;;;6.70;1.98;;;;;;;6.76;73.41;98227.53;5076151;28;20051;-77
2021/05/06 06:43:34;;;;;;;4.28;1.60;;;;;;;6.62;73.88;98220.34;5075204;28;20024;-75
2021/05/06 06:46:00;;;;;;;4.95;2.03;;;;;;;6.59;74.32;98213.50;5057564;28;20058;-75
2021/05/06 06:48:25;;;;;;;5.28;1.67;;;;;;;6.51;74.44;98205.56;5056524;28;20027;-75
2021/05/06 06:50:51;;;;;;;4.13;1.95;;;;;;;6.63;74.73;98208.59;5074953;28;20032;-74
2021/05/06 06:53:17;;;;;;;7.32;2.38;;;;;;;6.88;74.01;98218.94;5054642;28;20024;-74
2021/05/06 06:55:42;;;;;;;5.13;2.10;;;;;;;6.89;74.34;98209.84;5057221;28;20029;-65
2021/05/06 06:58:16;;;;;;;6.03;2.17;;;;;;;6.92;74.09;98209.47;5059152;28;20097;-65
2021/05/06 07:00:42;;;;;;;6.47;2.40;;;;;;;6.90;74.23;98209.66;5069131;28;20024;-66
2021/05/06 07:03:08;;;;;;;8.05;2.65;;;;;;;6.84;74.92;98197.00;5070113;28;20024;-66
2021/05/06 07:05:37;;;;;;;2.72;1.65;;;;;;;7.02;74.13;98207.25;5074990;28;20367;-65
2021/05/06 07:08:13;;;;;;;4.10;2.00;;;;;;;6.96;74.75;98200.78;5074160;28;20050;-66
2021/05/06 07:10:38;;;;;;;4.85;2.30;;;;;;;7.14;75.05;98200.31;5068465;28;20389;-65
2021/05/06 07:13:04;;;;;;;8.18;2.10;;;;;;;6.94;74.85;98200.19;5065069;28;20025;-65
2021/05/06 07:15:30;;;;;;;5.43;2.20;;;;;;;7.00;74.88;98198.56;5050992;28;20039;-65
2021/05/06 07:17:55;;;;;;;7.57;1.83;;;;;;;6.91;74.68;98188.97;5068396;28;20042;-65
2021/05/06 07:20:20;;;;;;;6.57;1.90;;;;;;;7.13;75.03;98181.69;5062734;28;20391;-69
2021/05/06 07:22:45;;;;;;;5.05;2.22;;;;;;;7.20;74.80;98191.47;5071771;28;20078;-68
2021/05/06 07:25:14;;;;;;;5.95;1.83;;;;;;;7.12;74.59;98196.97;5062581;28;20060;-71
2021/05/06 07:27:39;;;;;;;4.95;2.00;;;;;;;7.15;74.29;98196.63;5062489;28;20103;-73
2021/05/06 07:30:07;;;;;;;6.00;2.70;;;;;;;7.20;74.78;98186.09;5064786;28;20119;-73
2021/05/06 07:32:32;;;;;;;6.50;3.00;;;;;;;7.05;75.94;98169.22;5074610;28;20024;-72
2021/05/06 07:34:58;;;;;;;4.45;2.35;;;;;;;7.25;75.73;98201.63;5072526;28;20100;-73
2021/05/06 07:37:23;;;;;;;7.00;2.92;;;;;;;7.05;75.88;98193.44;5066651;28;20029;-69
2021/05/06 07:39:48;;;;;;;12.25;3.00;;;;;;;7.08;77.41;98201.09;5054554;28;20017;-68
2021/05/06 07:42:14;;;;;;;8.52;2.30;;;;;;;7.14;77.02;98197.63;5069678;28;20077;-70
2021/05/06 07:44:39;;;;;;;9.05;2.53;;;;;;;7.06;77.28;98176.25;5069253;28;20091;-73
2021/05/06 07:47:10;;;;;;;7.75;2.47;;;;;;;7.23;78.86;98193.75;5073250;28;20025;-73
2021/05/06 07:49:38;;;;;;;7.15;2.22;;;;;;;7.23;77.76;98183.00;5054895;28;20032;-79
2021/05/06 07:52:04;;;;;;;11.63;2.72;;;;;;;7.40;77.83;98204.22;5074337;28;20025;-68
2021/05/06 07:54:29;;;;;;;7.13;2.50;;;;;;;7.32;77.66;98196.28;5055573;28;20078;-77
2021/05/06 07:56:55;;;;;;;7.18;3.00;;;;;;;7.43;77.42;98190.34;5056115;28;20028;-74
2021/05/06 07:59:20;;;;;;;3.22;1.90;;;;;;;7.50;77.22;98183.16;5058347;28;20024;-73
2021/05/06 08:01:45;;;;;;;7.35;2.35;;;;;;;7.75;77.36;98190.72;5053537;28;20048;-73
2021/05/06 08:04:11;;;;;;;6.60;2.45;;;;;;;7.72;76.41;98181.19;5070692;28;20035;-76
2021/05/06 08:06:36;;;;;;;7.68;2.00;;;;;;;7.46;75.33;98166.56;5073522;28;20029;-74
2021/05/06 08:09:03;;;;;;;3.65;1.65;;;;;;;7.51;74.04;98175.91;5084083;28;20052;-78
2021/05/06 08:11:29;;;;;;;7.18;1.75;;;;;;;7.43;74.59;98180.41;5071506;28;20074;-75
2021/05/06 08:13:54;;;;;;;3.38;2.08;;;;;;;7.54;74.57;98183.56;5074380;28;20029;-77
2021/05/06 08:16:19;;;;;;;9.40;2.35;;;;;;;7.60;74.92;98180.94;5048455;28;20060;-78
2021/05/06 08:18:44;;;;;;;6.95;2.13;;;;;;;7.58;74.73;98168.69;5070044;28;20029;-75
2021/05/06 08:21:10;;;;;;;4.63;1.83;;;;;;;7.71;73.73;98178.72;5053060;28;20074;-74
2021/05/06 08:23:35;;;;;;;6.50;2.22;;;;;;;7.91;73.73;98184.97;5061882;28;20035;-68
2021/05/06 08:26:00;;;;;;;5.88;1.85;;;;;;;7.95;73.09;98178.16;5068447;28;20021;-69
2021/05/06 08:28:26;;;;;;;6.82;1.88;;;;;;;8.12;71.79;98181.31;5063129;28;20589;-70
2021/05/06 08:30:51;;;;;;;5.25;1.67;;;;;;;8.13;70.83;98181.13;5069054;28;20536;-71
2021/05/06 08:33:16;;;;;;;4.18;1.60;;;;;;;7.86;71.98;98172.13;5063721;28;20028;-78
2021/05/06 08:35:41;;;;;;;5.70;2.05;;;;;;;8.10;72.27;98184.22;5039090;28;20027;-73
2021/05/06 08:38:07;;;;;;;8.65;1.85;;;;;;;8.26;70.28;98183.03;5067595;28;20154;-71
2021/05/06 08:40:33;;;;;;;6.07;1.67;;;;;;;8.29;70.81;98171.00;5060776;28;20016;-70
2021/05/06 08:42:58;;;;;;;7.25;2.10;;;;;;;8.35;70.50;98159.41;5061758;28;20098;-72
2021/05/06 08:45:26;;;;;;;7.88;1.63;;;;;;;8.61;69.86;98160.50;5069134;28;20482;-72
2021/05/06 08:47:52;;;;;;;4.35;1.67;;;;;;;8.56;69.49;98161.94;5054179;28;20033;-69
2021/05/06 08:50:19;;;;;;;4.50;1.77;;;;;;;8.68;68.86;98162.19;5068755;28;20029;-72
2021/05/06 08:52:49;;;;;;;7.10;1.50;;;;;;;8.71;68.49;98164.44;5065926;28;20025;-77
2021/05/06 08:55:15;;;;;;;2.90;1.35;;;;;;;8.61;68.89;98174.81;5059750;28;20080;-72
2021/05/06 08:57:41;;;;;;;4.60;1.45;;;;;;;8.65;68.95;98168.00;5066275;28;20028;-73
2021/05/06 09:00:07;;;;;;;5.78;1.50;;;;;;;8.65;68.12;98156.38;5056006;28;20028;-74
2021/05/06 09:02:33;;;;;;;5.35;1.60;;;;;;;8.52;69.52;98181.47;5050028;28;20029;-71
2021/05/06 09:05:07;;;;;;;4.07;1.45;;;;;;;8.46;68.93;98177.72;5063089;28;20028;-71
2021/05/06 09:07:32;;;;;;;5.32;1.20;;;;;;;8.37;69.28;98181.59;5057395;28;20031;-73
2021/05/06 09:09:57;;;;;;;3.47;1.67;;;;;;;8.51;69.42;98180.63;5057865;28;20020;-70
2021/05/06 09:12:37;;;;;;;4.63;1.70;;;;;;;8.61;69.12;98171.28;5045923;28;20020;-69
2021/05/06 09:15:15;;;;;;;6.00;1.42;;;;;;;8.61;68.70;98174.00;5051452;28;20147;-74
2021/05/06 09:17:42;;;;;;;9.35;1.58;;;;;;;8.65;68.19;98153.69;5064022;28;20036;-74
2021/05/06 09:20:16;;;;;;;6.65;1.35;;;;;;;8.77;67.66;98170.88;5053271;28;20021;-70
2021/05/06 09:22:44;;;;;;;6.78;1.50;;;;;;;9.05;67.90;98161.75;5060993;28;20642;-68
2021/05/06 09:25:32;;;;;;;7.13;1.75;;;;;;;8.96;67.15;98169.22;5053589;28;20032;-69
2021/05/06 09:28:11;;;;;;;6.70;1.48;;;;;;;9.09;66.86;98158.44;5055604;28;20053;-69
2021/05/06 09:30:46;;;;;;;2.95;1.38;;;;;;;9.16;67.20;98164.63;5069769;28;20478;-70
2021/05/06 09:33:12;;;;;;;3.88;1.33;;;;;;;9.34;67.19;98158.56;5071178;28;20790;-73
2021/05/06 09:35:45;;;;;;;7.10;1.67;;;;;;;9.32;66.75;98157.94;5058145;28;20035;-77
2021/05/06 09:38:31;;;;;;;5.05;1.55;;;;;;;9.36;66.87;98161.91;5072039;28;20021;-73
2021/05/06 09:41:01;;;;;;;2.30;1.30;;;;;;;9.52;66.42;98165.19;5045443;28;20025;-71
2021/05/06 09:43:29;;;;;;;5.38;1.40;;;;;;;9.61;65.87;98158.50;5068068;28;20103;-69
2021/05/06 09:45:54;;;;;;;4.07;1.48;;;;;;;9.62;65.90;98149.38;5067058;28;20028;-71
2021/05/06 09:48:21;;;;;;;5.60;1.40;;;;;;;9.73;66.25;98154.09;5065929;28;20032;-68
2021/05/06 09:50:52;;;;;;;4.10;1.23;;;;;;;9.77;65.79;98141.84;5066420;28;20032;-76
2021/05/06 09:53:22;;;;;;;3.45;1.38;;;;;;;9.67;65.64;98152.25;5067267;28;20028;-69
2021/05/06 09:55:47;;;;;;;;;;;;;;;9.60;65.49;98156.84;5054520;28;20389;-73
2021/05/06 09:58:24;;;;;;;5.95;1.73;;;;;;;9.68;65.83;98153.09;5070363;28;19912;-74
2021/05/06 10:00:51;;;;;;;4.22;1.30;;;;;;;9.56;65.83;98144.81;5071940;28;20043;-71
2021/05/06 10:03:30;;;;;;;4.68;1.67;;;;;;;9.73;65.78;98156.81;5071831;28;20028;-71
2021/05/06 10:05:56;;;;;;;5.65;1.55;;;;;;;9.94;65.35;98142.16;5056620;28;20382;-72
2021/05/06 10:08:36;;;;;;;4.57;1.33;;;;;;;9.86;65.73;98145.94;5066820;28;20032;-74
2021/05/06 10:11:16;;;;;;;6.00;1.48;;;;;;;9.91;65.33;98148.00;5079307;28;20021;-69
2021/05/06 10:13:43;;;;;;;5.30;1.50;;;;;;;9.58;64.49;98142.72;5085624;28;20040;-68
2021/05/06 10:16:10;;;;;;;5.72;1.58;;;;;;;9.77;65.71;98144.53;5087002;28;20024;-68
2021/05/06 10:18:42;;;;;;;5.82;1.52;;;;;;;9.79;65.02;98138.91;5083446;28;20409;-68
2021/05/06 10:21:08;;;;;;;5.38;1.35;;;;;;;9.87;64.66;98127.84;5082810;28;20024;-69
2021/05/06 10:23:35;;;;;;;6.57;1.50;;;;;;;9.91;64.06;98131.78;5083582;28;20025;-71
2021/05/06 10:26:01;;;;;;;5.53;1.38;;;;;;;9.90;63.80;98127.41;5067125;28;20021;-68
2021/05/06 10:28:28;;;;;;;4.78;1.83;;;;;;;9.86;64.31;98128.91;5061909;28;20111;-68
2021/05/06 10:30:53;;;;;;;5.68;1.48;;;;;;;9.95;64.03;98102.44;5083178;28;20031;-68
2021/05/06 10:33:25;;;;;;;7.18;1.60;;;;;;;10.06;64.28;98121.53;5059735;28;20021;-68
2021/05/06 10:35:50;;;;;;;5.53;1.70;;;;;;;10.10;64.41;98114.63;5078860;28;20029;-71
2021/05/06 10:38:16;;;;;;;5.25;1.63;;;;;;;9.93;63.83;98104.53;5072265;28;20028;-71
2021/05/06 10:40:42;;;;;;;3.00;1.40;;;;;;;10.00;64.10;98108.84;5072530;28;20055;-69
2021/05/06 10:43:18;;;;;;;3.83;1.77;;;;;;;9.97;64.91;98108.47;5069739;28;20073;-68
2021/05/06 10:45:53;;;;;;;6.57;1.63;;;;;;;9.92;64.75;98106.41;5065089;28;20107;-68
2021/05/06 10:48:18;;;;;;;5.82;1.35;;;;;;;9.93;64.81;98099.13;5050851;28;20040;-69
2021/05/06 10:50:43;;;;;;;6.82;1.60;;;;;;;10.05;64.48;98089.31;5059989;28;20028;-69
2021/05/06 10:53:09;;;;;;;3.05;1.40;;;;;;;9.77;65.60;98071.59;5070107;28;20024;-69
2021/05/06 10:55:49;;;;;;;10.23;1.73;;;;;;;9.68;64.77;98072.88;5069779;28;20103;-69
2021/05/06 10:58:27;;;;;;;7.00;1.63;;;;;;;9.70;65.57;98084.31;5049300;28;20033;-70
2021/05/06 11:01:01;;;;;;;3.28;1.50;;;;;;;9.59;65.34;98080.41;5064061;28;20028;-75
2021/05/06 11:03:28;;;;;;;4.75;1.63;;;;;;;9.63;65.78;98086.19;5064051;28;20032;-67
2021/05/06 11:05:53;;;;;;;6.32;1.65;;;;;;;9.51;66.07;98059.06;5054885;28;20521;-67
2021/05/06 11:08:19;;;;;;;5.70;1.67;;;;;;;9.66;65.42;98074.97;5066537;28;20033;-68
2021/05/06 11:10:48;;;;;;;5.10;1.52;;;;;;;9.64;65.67;98077.91;5062842;28;20514;-67
2021/05/06 11:13:14;;;;;;;5.22;1.58;;;;;;;9.58;65.38;98069.81;5061321;28;20127;-68
2021/05/06 11:15:40;;;;;;;6.25;1.60;;;;;;;9.74;65.41;98076.59;5067342;28;20120;-69
2021/05/06 11:18:08;;;;;;;7.80;2.00;;;;;;;9.54;65.71;98066.72;5064109;28;20082;-69
2021/05/06 11:20:34;;;;;;;7.80;1.50;;;;;;;9.72;65.17;98067.88;5067301;28;20024;-68
2021/05/06 11:23:01;;;;;;;5.15;1.35;;;;;;;9.65;65.43;98059.81;5069466;28;20024;-70
2021/05/06 11:25:26;;;;;;;8.50;1.83;;;;;;;9.81;64.92;98061.19;5044806;28;20025;-72
2021/05/06 11:27:53;;;;;;;6.88;1.85;;;;;;;10.00;64.45;98064.81;5066781;28;20090;-72
2021/05/06 11:30:35;;;;;;;6.15;1.85;;;;;;;10.00;65.01;98054.81;5068842;28;20024;-69
2021/05/06 11:33:19;;;;;;;8.00;1.80;;;;;;;10.10;64.60;98055.16;5064279;28;20024;-71
2021/05/06 11:36:32;;;;;;;7.53;1.90;;;;;;;10.09;64.03;98041.88;5059872;28;20151;-72
2021/05/06 11:38:58;;;;;;;8.32;2.03;;;;;;;10.01;64.00;98028.63;5030720;28;20036;-73
2021/05/06 11:41:34;;;;;;;2.45;1.40;;;;;;;9.86;64.06;98037.88;5071064;28;20444;-72
2021/05/06 11:44:01;;;;;;;8.27;2.05;;;;;;;9.88;64.96;98030.38;5043334;28;20103;-74
2021/05/06 11:46:27;;;;;;;6.47;2.05;;;;;;;10.07;64.90;98019.66;5044192;28;20116;-68
2021/05/06 11:48:55;;;;;;;3.45;1.67;;;;;;;10.17;65.14;98016.47;5071575;28;20036;-62
2021/05/06 11:51:52;;;;;;;6.85;1.75;;;;;;;10.39;64.82;97992.59;5069113;28;20032;-62
2021/05/06 11:54:20;;;;;;;6.40;2.08;;;;;;;10.40;65.12;98007.75;5057280;28;20111;-66
2021/05/06 11:56:53;;;;;;;8.98;1.50;;;;;;;10.60;65.06;98003.00;5062510;28;20033;-63
2021/05/06 11:59:30;;;;;;;4.97;1.70;;;;;;;10.56;65.42;98009.91;5060863;28;20036;-65
2021/05/06 12:01:58;;;;;;;6.10;1.90;;;;;;;10.39;66.70;98004.22;5069933;28;20474;-70
2021/05/06 12:04:34;;;;;;;9.43;2.40;;;;;;;10.08;67.30;97988.84;5046820;28;20474;-68
2021/05/06 12:07:10;;;;;;;8.10;1.80;;;;;;;9.92;68.28;97994.81;5068591;28;20043;-67
2021/05/06 12:09:35;;;;;;;2.58;1.40;;;;;;;9.94;67.62;98003.53;5060554;28;20029;-68
2021/05/06 12:12:00;;;;;;;5.43;1.23;;;;;;;9.81;66.58;97991.75;5057664;28;20470;-72
2021/05/06 12:14:31;;;;;;;6.85;1.23;;;;;;;9.90;65.32;97984.22;5044952;28;20029;-74
2021/05/06 12:16:56;;;;;;;4.00;0.82;;;;;;;9.84;64.50;97977.81;5061547;28;20063;-72
2021/05/06 12:19:22;;;;;;;1.52;0.70;;;;;;;10.12;63.69;97981.16;5071165;28;20572;-71
2021/05/06 12:21:50;;;;;;;2.22;1.02;;;;;;;10.48;62.79;97985.84;5071534;28;20413;-71
2021/05/06 12:24:37;;;;;;;1.27;0.60;;;;;;;10.47;63.30;97981.47;5067459;28;20555;-69
2021/05/06 12:27:21;;;;;;;2.28;0.73;;;;;;;10.42;62.90;97974.03;5068021;28;20025;-67
2021/05/06 12:29:48;;;;;;;5.22;1.08;;;;;;;10.30;64.18;97968.53;5057362;28;20103;-67
2021/05/06 12:32:22;;;;;;;2.45;1.08;;;;;;;10.00;65.46;97972.91;5058136;28;20036;-66
2021/05/06 12:34:47;;;;;;;1.10;0.65;;;;;;;9.83;65.64;97968.06;5069282;28;20637;-64
2021/05/06 12:37:13;;;;;;;1.25;0.70;;;;;;;10.07;65.83;97954.78;5070168;28;20024;-71
2021/05/06 12:39:40;;;;;;;0.47;0.38;;;;;;;10.18;64.90;97953.22;5066664;28;20024;-70
2021/05/06 12:42:06;;;;;;;0.45;0.40;;;;;;;10.12;65.81;97944.13;5065862;28;20027;-71
2021/05/06 12:44:46;;;;;;;1.20;0.43;;;;;;;10.10;66.12;97948.94;5062936;28;20028;-71
2021/05/06 12:47:14;;;;;;;1.65;0.50;;;;;;;10.23;65.37;97946.09;5070521;28;20032;-72
2021/05/06 12:49:40;;;;;;;3.65;0.63;;;;;;;10.24;65.64;97939.66;5070806;28;20093;-73
2021/05/06 12:52:05;;;;;;;1.80;0.93;;;;;;;10.34;66.45;97927.53;5065549;28;20036;-71
2021/05/06 12:54:35;;;;;;;2.00;0.70;;;;;;;10.52;65.26;97939.19;5062182;28;20101;-73
2021/05/06 12:57:16;;;;;;;;;;;;;;;10.48;66.63;97938.00;5071155;28;20020;-72
2021/05/06 12:59:48;;;;;;;3.20;0.90;;;;;;;10.21;66.54;97934.69;5070479;28;20435;-73
2021/05/06 13:02:14;;;;;;;1.23;1.02;;;;;;;9.60;69.30;97911.91;5052739;28;20678;-68
2021/05/06 13:04:47;;;;;;;3.78;1.00;;;;;;;9.68;71.46;97926.22;5059242;28;20032;-68
2021/05/06 13:07:14;;;;;;;2.42;0.63;;;;;;;9.46;70.96;97928.41;5066884;28;20020;-69
2021/05/06 13:09:42;;;;;;;2.45;0.93;;;;;;;9.51;72.73;97936.69;5072590;28;20024;-70
2021/05/06 13:12:13;;;;;;;2.47;0.73;;;;;;;9.34;73.09;97937.22;5069396;28;20111;-70
2021/05/06 13:15:05;;;;;;;2.05;0.80;;;;;;;9.45;74.21;97935.69;5069466;28;20127;-70
2021/05/06 13:17:33;;;;;;;0.88;0.60;;;;;;;9.52;74.29;97930.28;5056926;28;20421;-73
2021/05/06 13:20:14;;;;;;;4.13;0.75;;;;;;;9.57;73.89;97919.66;5070022;28;20847;-75
2021/05/06 13:22:39;;;;;;;3.20;0.90;;;;;;;9.64;73.16;97920.41;5051115;28;20025;-75
2021/05/06 13:25:06;;;;;;;1.85;1.10;;;;;;;9.34;74.59;97914.81;5053741;28;20028;-74
2021/05/06 13:27:32;;;;;;;2.50;1.13;;;;;;;9.37;75.97;97912.47;5066617;28;20028;-74
2021/05/06 13:30:03;;;;;;;1.77;0.98;;;;;;;9.29;76.28;97909.22;5051639;28;20036;-72
2021/05/06 13:32:41;;;;;;;1.70;0.95;;;;;;;9.27;74.91;97877.03;5060455;28;20037;-70
2021/05/06 13:35:15;;;;;;;1.55;0.98;;;;;;;9.27;75.30;97887.84;5068657;28;20024;-70
2021/05/06 13:37:44;;;;;;;1.95;0.90;;;;;;;9.01;76.61;97872.63;5064425;28;20470;-72
2021/05/06 13:40:10;;;;;;;2.78;0.90;;;;;;;9.05;75.89;97878.44;5067996;28;20024;-66
2021/05/06 13:42:36;;;;;;;0.80;0.68;;;;;;;8.99;75.84;97875.56;5067742;28;20066;-66
2021/05/06 13:45:03;;;;;;;1.98;1.00;;;;;;;8.75;77.23;97877.16;5052230;28;20756;-67
2021/05/06 13:47:29;;;;;;;4.22;1.15;;;;;;;8.59;78.07;97874.91;5064833;28;20781;-66
2021/05/06 13:49:54;;;;;;;1.90;1.17;;;;;;;8.37;79.52;97850.09;5051281;28;20030;-65
2021/05/06 13:52:23;;;;;;;3.95;1.35;;;;;;;8.56;79.88;97873.47;5067013;28;20029;-66
2021/05/06 13:54:48;;;;;;;2.22;1.30;;;;;;;8.42;80.13;97863.78;5058614;28;20024;-66
2021/05/06 13:57:13;;;;;;;2.05;1.40;;;;;;;8.44;81.75;97860.88;5053475;28;20135;-65
2021/05/06 13:59:39;;;;;;;2.05;1.30;;;;;;;8.55;81.07;97858.34;5055727;28;20481;-65
2021/05/06 14:02:07;;;;;;;1.83;1.00;;;;;;;8.58;80.10;97848.19;5055797;28;20028;-67
2021/05/06 14:04:32;;;;;;;2.83;1.10;;;;;;;8.54;79.20;97836.97;5065325;28;20089;-68
2021/05/06 14:06:57;;;;;;;2.40;1.20;;;;;;;8.71;80.21;97840.84;5053758;28;20029;-67
2021/05/06 14:09:22;;;;;;;2.38;1.20;;;;;;;8.86;78.22;97823.56;5054450;28;20037;-68
2021/05/06 14:11:50;;;;;;;2.70;1.25;;;;;;;8.81;80.43;97824.22;5054393;28;20029;-68
2021/05/06 14:14:16;;;;;;;4.88;1.42;;;;;;;8.78;80.31;97797.69;5064892;28;20063;-67
2021/05/06 14:16:42;;;;;;;4.07;1.70;;;;;;;8.93;81.42;97802.75;5068478;28;20059;-67
2021/05/06 14:19:08;;;;;;;5.97;1.83;;;;;;;8.96;80.68;97799.63;5068060;28;20040;-69
2021/05/06 14:21:35;;;;;;;3.70;1.48;;;;;;;8.72;81.06;97783.19;5050358;28;20029;-70
2021/05/06 14:24:01;;;;;;;3.88;1.88;;;;;;;8.77;80.57;97801.41;5055416;28;20447;-69
2021/05/06 14:26:26;;;;;;;3.17;1.27;;;;;;;8.80;80.33;97802.84;5067112;28;20033;-73
2021/05/06 14:28:52;;;;;;;2.13;1.10;;;;;;;8.40;81.43;97763.44;5051243;28;20027;-72
2021/05/06 14:31:17;;;;;;;1.55;1.38;;;;;;;8.42;82.16;97793.69;5067981;28;20111;-71
2021/05/06 14:33:43;;;;;;;4.47;1.40;;;;;;;8.41;82.88;97783.13;5068338;28;20398;-73
2021/05/06 14:36:10;;;;;;;3.55;1.77;;;;;;;8.31;83.53;97786.28;5069285;28;20039;-71
2021/05/06 14:38:37;;;;;;;6.38;2.13;;;;;;;8.47;83.29;97777.72;5065733;28;20051;-71
2021/05/06 14:41:03;;;;;;;3.13;2.20;;;;;;;8.53;83.29;97765.25;5072586;28;20474;-72
2021/05/06 14:43:29;;;;;;;2.78;1.52;;;;;;;8.42;82.71;97761.38;5071795;28;20035;-72
2021/05/06 14:45:54;;;;;;;4.85;1.67;;;;;;;8.30;83.66;97749.56;5055627;28;20492;-72
2021/05/06 14:48:20;;;;;;;2.50;1.52;;;;;;;8.23;82.95;97740.72;5052405;28;20024;-72
2021/05/06 14:50:45;;;;;;;5.82;1.38;;;;;;;8.22;83.35;97749.81;5046770;28;20032;-72
2021/05/06 14:53:11;;;;;;;4.43;1.85;;;;;;;8.13;85.06;97749.25;5066740;28;20098;-72
2021/05/06 14:55:37;;;;;;;3.35;2.10;;;;;;;8.13;85.42;97752.75;5068777;28;20135;-69
2021/05/06 14:58:03;;;;;;;4.43;3.25;;;;;;;8.03;85.97;97717.34;5068825;28;20524;-69
2021/05/06 15:00:29;;;;;;;5.93;2.83;;;;;;;8.07;85.80;97726.69;5067483;28;20063;-69
2021/05/06 15:02:54;;;;;;;6.85;2.08;;;;;;;8.09;85.63;97739.91;5070476;28;20036;-68